This is the latest recevied weather packets stored in our database for station/object WB4ZUT. If no packets are shown the sender has not sent any weather packets the latest 1 day(s).
| Time | Temp. | Humidity | Pressure | Rain* | Wind** | Luminosity | Snow |
|---|---|---|---|---|---|---|---|
| 1778054292 | 7.78° C | 99% | 1010.4 hPa | 0 mm | 0 m/s | 0 W/m² | - |
| 1778053989 | 7.78° C | 99% | 1010 hPa | 0 mm | 0.45 m/s, 42° | 0 W/m² | - |
| 1778053686 | 7.78° C | 99% | 1010 hPa | 0 mm | 0.89 m/s, 59° | 0 W/m² | - |
| 1778053383 | 7.78° C | 99% | 1009.6 hPa | 0 mm | 0.89 m/s, 30° | 0 W/m² | - |
| 1778053080 | 7.78° C | 99% | 1008.9 hPa | 0 mm | 0.89 m/s, 40° | 0 W/m² | - |
| 1778052778 | 7.78° C | 99% | 1008.6 hPa | 0 mm | 0.45 m/s, 49° | 0 W/m² | - |
| 1778052475 | 7.78° C | 99% | 1008.4 hPa | 0 mm | 0.45 m/s, 58° | 0 W/m² | - |
| 1778052172 | 8.33° C | 99% | 1008.6 hPa | 1.78 mm | 0.45 m/s, 43° | 0 W/m² | - |
| 1778051870 | 8.33° C | 99% | 1009.3 hPa | 1.78 mm | 0.89 m/s, 60° | 0 W/m² | - |
| 1778051568 | 8.33° C | 99% | 1009.6 hPa | 1.78 mm | 1.79 m/s, 357° | 0 W/m² | - |
| 1778051264 | 8.33° C | 99% | 1009.7 hPa | 0 mm | 0.89 m/s, 61° | 0 W/m² | - |
| 1778050961 | 8.33° C | 99% | 1009.7 hPa | 0 mm | 0.89 m/s, 59° | 0 W/m² | - |
| 1778050659 | 8.33° C | 99% | 1009.8 hPa | 0 mm | 0.89 m/s, 47° | 0 W/m² | - |
| 1778050356 | 8.89° C | 99% | 1009.9 hPa | 0 mm | 0.45 m/s, 352° | 0 W/m² | - |
| 1778050052 | 9.44° C | 99% | 1009.9 hPa | 0 mm | 0 m/s | 0 W/m² | - |
| 1778049748 | 9.44° C | 99% | 1010.2 hPa | 0 mm | 0.89 m/s, 36° | 0 W/m² | - |
| 1778049446 | 9.44° C | 99% | 1010 hPa | 1.27 mm | 0.89 m/s, 29° | 0 W/m² | - |
| 1778049143 | 9.44° C | 99% | 1010.1 hPa | 1.27 mm | 0.45 m/s, 58° | 0 W/m² | - |
| 1778048842 | 9.44° C | 99% | 1010.2 hPa | 0 mm | 0 m/s | 0 W/m² | - |
| 1778048538 | 9.44° C | 99% | 1010.2 hPa | 0 mm | 0.89 m/s, 353° | 0 W/m² | - |
| 1778048234 | 9.44° C | 99% | 1009.5 hPa | 1.78 mm | 0 m/s | 0 W/m² | - |
| 1778047932 | 9.44° C | 99% | 1009.2 hPa | 3.05 mm | 1.34 m/s, 335° | 0 W/m² | - |
| 1778047631 | 9.44° C | 99% | 1009.7 hPa | 3.05 mm | 0.45 m/s, 44° | 0 W/m² | - |
| 1778047327 | 9.44° C | 99% | 1010.4 hPa | 1.78 mm | 0.45 m/s, 65° | 0 W/m² | - |
| 1778047024 | 9.44° C | 99% | 1010.7 hPa | 1.27 mm | 0 m/s | 0 W/m² | - |
* Rain latest hour (hover to see other rain measurements)
** Current wind speed in m/s (hover to see current wind gust speed)